createdAt,value
2022-12-04T00:00:51.097Z,1010.06
2022-12-04T00:01:51.114Z,1010.06
2022-12-04T00:02:51.219Z,1010.06
2022-12-04T00:03:51.122Z,1010.08
2022-12-04T00:04:51.107Z,1010.04
2022-12-04T00:05:51.051Z,1010.07
2022-12-04T00:06:57.047Z,1010.00
2022-12-04T00:07:51.207Z,1010.01
2022-12-04T00:08:51.029Z,1010.06
2022-12-04T00:09:51.020Z,1010.02
2022-12-04T00:10:51.018Z,1010.02
2022-12-04T00:11:51.009Z,1010.03
2022-12-04T00:12:50.975Z,1010.05
2022-12-04T00:13:50.963Z,1010.01
2022-12-04T00:15:23.771Z,1010.00
2022-12-04T00:15:50.991Z,1010.00
2022-12-04T00:16:51.040Z,1009.98
2022-12-04T00:17:50.938Z,1010.02
2022-12-04T00:18:50.920Z,1010.09
2022-12-04T00:19:50.906Z,1010.00
2022-12-04T00:20:50.898Z,1010.05
2022-12-04T00:21:50.884Z,1009.99
2022-12-04T00:22:50.906Z,1010.01
2022-12-04T00:23:50.864Z,1009.99
2022-12-04T00:24:50.855Z,1010.00
2022-12-04T00:25:50.868Z,1010.01
2022-12-04T00:26:50.813Z,1009.95
2022-12-04T00:27:50.814Z,1009.98
2022-12-04T00:28:50.844Z,1009.96
2022-12-04T00:29:50.798Z,1009.98
2022-12-04T00:30:50.796Z,1009.99
2022-12-04T00:31:50.864Z,1009.97
2022-12-04T00:32:50.756Z,1009.95
2022-12-04T00:33:50.832Z,1010.00
2022-12-04T00:34:50.761Z,1010.00
2022-12-04T00:35:50.723Z,1009.98
2022-12-04T00:36:50.715Z,1009.94
2022-12-04T00:39:01.428Z,1010.00
2022-12-04T00:40:02.445Z,1009.92
2022-12-04T00:41:02.409Z,1009.94
2022-12-04T00:42:02.398Z,1009.93
2022-12-04T00:43:02.402Z,1009.94
2022-12-04T00:44:02.390Z,1009.93
2022-12-04T00:45:02.377Z,1009.94
2022-12-04T00:46:02.423Z,1009.95
2022-12-04T00:47:02.344Z,1009.89
2022-12-04T00:48:02.338Z,1009.95
2022-12-04T00:49:02.349Z,1009.91
2022-12-04T00:50:02.305Z,1009.93
2022-12-04T00:51:02.372Z,1009.89
2022-12-04T00:52:02.290Z,1009.90
2022-12-04T00:53:02.283Z,1009.86
2022-12-04T00:54:02.278Z,1009.90
2022-12-04T00:55:02.270Z,1009.89
2022-12-04T00:56:02.246Z,1009.85
2022-12-04T00:57:02.255Z,1009.87
2022-12-04T00:58:02.221Z,1009.89
2022-12-04T00:59:02.219Z,1009.89
2022-12-04T01:00:02.197Z,1009.83
2022-12-04T01:01:02.238Z,1009.84
2022-12-04T01:02:02.183Z,1009.84
2022-12-04T01:03:02.188Z,1009.82
2022-12-04T01:04:02.247Z,1009.79
2022-12-04T01:05:02.188Z,1009.77
2022-12-04T01:06:02.120Z,1009.78
2022-12-04T01:07:05.215Z,1009.81
2022-12-04T01:08:02.230Z,1009.81
2022-12-04T01:09:02.100Z,1009.79
2022-12-04T01:10:02.077Z,1009.85
2022-12-04T01:11:02.077Z,1009.81
2022-12-04T01:12:02.074Z,1009.89
2022-12-04T01:13:02.034Z,1009.85
2022-12-04T01:14:02.057Z,1009.85
2022-12-04T01:15:02.031Z,1009.86
2022-12-04T01:16:02.029Z,1009.81
2022-12-04T01:17:02.078Z,1009.82
2022-12-04T01:18:02.012Z,1009.90
2022-12-04T01:19:01.996Z,1009.84
2022-12-04T01:20:01.989Z,1009.85
2022-12-04T01:21:02.010Z,1009.87
2022-12-04T01:22:01.976Z,1009.84
2022-12-04T01:23:01.921Z,1009.89
2022-12-04T01:24:01.967Z,1009.83
2022-12-04T01:25:01.922Z,1009.86
2022-12-04T01:26:01.898Z,1009.82
2022-12-04T01:27:01.927Z,1009.87
2022-12-04T01:28:01.908Z,1009.82
2022-12-04T01:29:01.886Z,1009.89
2022-12-04T01:30:01.876Z,1009.87
2022-12-04T01:31:01.853Z,1009.83
2022-12-04T01:32:01.930Z,1009.81
2022-12-04T01:33:01.834Z,1009.79
2022-12-04T01:34:01.857Z,1009.76
2022-12-04T01:35:01.872Z,1009.74
2022-12-04T01:36:01.785Z,1009.72
2022-12-04T01:37:01.767Z,1009.77
2022-12-04T01:38:01.782Z,1009.74
2022-12-04T01:39:01.817Z,1009.73
2022-12-04T01:40:01.754Z,1009.79
2022-12-04T01:41:01.751Z,1009.75
2022-12-04T01:42:01.736Z,1009.70
2022-12-04T01:43:01.741Z,1009.75
2022-12-04T01:44:01.693Z,1009.72
2022-12-04T01:45:01.708Z,1009.71
2022-12-04T01:46:01.797Z,1009.70
2022-12-04T01:47:01.667Z,1009.69
2022-12-04T01:48:01.687Z,1009.71
2022-12-04T01:49:01.662Z,1009.73
2022-12-04T01:50:01.643Z,1009.70
2022-12-04T01:51:01.647Z,1009.68
2022-12-04T01:52:01.624Z,1009.71
2022-12-04T01:53:01.605Z,1009.72
2022-12-04T01:54:01.588Z,1009.71
2022-12-04T01:55:01.576Z,1009.73
2022-12-04T01:56:01.602Z,1009.75
2022-12-04T01:57:01.588Z,1009.72
2022-12-04T01:58:01.567Z,1009.84
2022-12-04T01:59:01.554Z,1009.75
2022-12-04T02:00:01.551Z,1009.80
2022-12-04T02:01:06.512Z,1009.78
2022-12-04T02:02:01.622Z,1009.80
2022-12-04T02:03:01.568Z,1009.81
2022-12-04T02:04:01.502Z,1009.81
2022-12-04T02:05:01.481Z,1009.81
2022-12-04T02:06:01.552Z,1009.84
2022-12-04T02:07:01.472Z,1009.86
2022-12-04T02:08:01.573Z,1009.83
2022-12-04T02:09:01.410Z,1009.81
2022-12-04T02:10:01.416Z,1009.71
2022-12-04T02:11:01.410Z,1009.80
2022-12-04T02:12:01.422Z,1009.75
2022-12-04T02:13:01.403Z,1009.80
2022-12-04T02:14:01.373Z,1009.76
2022-12-04T02:15:01.369Z,1009.77
2022-12-04T02:16:01.344Z,1009.76
2022-12-04T02:17:01.396Z,1009.74
2022-12-04T02:18:07.876Z,1009.74
2022-12-04T02:19:01.322Z,1009.73
2022-12-04T02:20:01.299Z,1009.73
2022-12-04T02:21:01.296Z,1009.73
2022-12-04T02:22:01.277Z,1009.75
2022-12-04T02:23:01.288Z,1009.72
2022-12-04T02:24:01.274Z,1009.72
2022-12-04T02:25:01.244Z,1009.79
2022-12-04T02:26:01.224Z,1009.72
2022-12-04T02:27:01.266Z,1009.73
2022-12-04T02:28:01.224Z,1009.74
2022-12-04T02:29:01.223Z,1009.73
2022-12-04T02:30:01.206Z,1009.74
2022-12-04T02:31:01.353Z,1009.74
2022-12-04T02:32:01.188Z,1009.79
2022-12-04T02:33:01.188Z,1009.77
2022-12-04T02:34:01.162Z,1009.82
2022-12-04T02:35:01.153Z,1009.80
2022-12-04T02:36:01.133Z,1009.77
2022-12-04T02:37:01.181Z,1009.79
2022-12-04T02:38:01.092Z,1009.80
2022-12-04T02:39:01.119Z,1009.79
2022-12-04T02:40:01.079Z,1009.84
2022-12-04T02:41:01.082Z,1009.79
2022-12-04T02:42:01.070Z,1009.88
2022-12-04T02:43:01.058Z,1009.86
2022-12-04T02:44:01.057Z,1009.79
2022-12-04T02:45:01.043Z,1009.78
2022-12-04T02:46:01.110Z,1009.82
2022-12-04T02:47:01.021Z,1009.82
2022-12-04T02:48:01.003Z,1009.85
2022-12-04T02:49:01.000Z,1009.81
2022-12-04T02:50:01.071Z,1009.81
2022-12-04T02:51:00.975Z,1009.93
2022-12-04T02:52:00.954Z,1009.86
2022-12-04T02:53:00.958Z,1009.86
2022-12-04T02:54:00.958Z,1009.86
2022-12-04T02:55:05.312Z,1009.89
2022-12-04T02:56:00.907Z,1009.91
2022-12-04T02:57:00.887Z,1009.88
2022-12-04T02:58:00.897Z,1009.88
2022-12-04T02:59:00.889Z,1009.85
2022-12-04T03:00:00.899Z,1009.85
2022-12-04T03:01:00.906Z,1009.83
2022-12-04T03:02:00.917Z,1009.85
2022-12-04T03:03:00.947Z,1009.77
2022-12-04T03:04:00.848Z,1009.84
2022-12-04T03:05:00.800Z,1009.78
2022-12-04T03:06:00.807Z,1009.78
2022-12-04T03:07:00.797Z,1009.81
2022-12-04T03:08:00.933Z,1009.85
2022-12-04T03:09:00.802Z,1009.86
2022-12-04T03:10:00.775Z,1009.79
2022-12-04T03:11:00.770Z,1009.83
2022-12-04T03:12:00.725Z,1009.86
2022-12-04T03:13:00.714Z,1009.80
2022-12-04T03:14:00.707Z,1009.82
2022-12-04T03:15:00.689Z,1009.83
2022-12-04T03:16:00.680Z,1009.82
2022-12-04T03:17:00.733Z,1009.81
2022-12-04T03:18:00.692Z,1009.84
2022-12-04T03:19:00.646Z,1009.79
2022-12-04T03:20:00.628Z,1009.82
2022-12-04T03:21:00.637Z,1009.82
2022-12-04T03:22:00.630Z,1009.78
2022-12-04T03:23:00.621Z,1009.82
2022-12-04T03:24:00.608Z,1009.76
2022-12-04T03:25:00.579Z,1009.79
2022-12-04T03:26:00.578Z,1009.78
2022-12-04T03:27:00.578Z,1009.82
2022-12-04T03:28:00.568Z,1009.84
2022-12-04T03:29:00.548Z,1009.83
2022-12-04T03:30:00.548Z,1009.86
2022-12-04T03:31:00.628Z,1009.88
2022-12-04T03:32:00.492Z,1009.82
2022-12-04T03:33:00.514Z,1009.87
2022-12-04T03:34:00.493Z,1009.87
2022-12-04T03:35:00.474Z,1009.89
2022-12-04T03:36:00.467Z,1009.84
2022-12-04T03:37:00.447Z,1009.86
2022-12-04T03:38:07.610Z,1009.87
2022-12-04T03:39:00.458Z,1009.86
2022-12-04T03:40:00.440Z,1009.89
2022-12-04T03:41:00.415Z,1009.88
2022-12-04T03:42:00.403Z,1009.91
2022-12-04T03:43:00.403Z,1009.86
2022-12-04T03:44:00.367Z,1009.91
2022-12-04T03:45:00.373Z,1009.92
2022-12-04T03:46:00.366Z,1009.87
2022-12-04T03:47:00.383Z,1009.88
2022-12-04T03:48:00.338Z,1009.91
2022-12-04T03:49:00.337Z,1009.89
2022-12-04T03:50:00.335Z,1009.87
2022-12-04T03:51:00.310Z,1009.92
2022-12-04T03:52:00.276Z,1009.87
2022-12-04T03:53:00.280Z,1009.90
2022-12-04T03:54:00.287Z,1009.87
2022-12-04T03:55:00.288Z,1009.86
2022-12-04T03:56:00.238Z,1009.82
2022-12-04T03:57:00.229Z,1009.82
2022-12-04T03:58:00.209Z,1009.85
2022-12-04T03:59:00.204Z,1009.85
2022-12-04T04:00:00.423Z,1009.85
2022-12-04T04:01:00.313Z,1009.82
2022-12-04T04:02:00.279Z,1009.81
2022-12-04T04:03:00.261Z,1009.83
2022-12-04T04:04:00.359Z,1009.79
2022-12-04T04:05:00.170Z,1009.82
2022-12-04T04:06:00.138Z,1009.81
2022-12-04T04:07:00.128Z,1009.85
2022-12-04T04:08:06.727Z,1009.83
2022-12-04T04:09:00.166Z,1009.83
2022-12-04T04:10:00.096Z,1009.85
2022-12-04T04:11:00.092Z,1009.87
2022-12-04T04:12:00.049Z,1009.80
2022-12-04T04:13:00.076Z,1009.86
2022-12-04T04:14:00.074Z,1009.86
2022-12-04T04:15:00.058Z,1009.88
2022-12-04T04:16:00.043Z,1009.84
2022-12-04T04:17:00.036Z,1009.86
2022-12-04T04:18:00.014Z,1009.87
2022-12-04T04:19:00.003Z,1009.84
2022-12-04T04:19:59.964Z,1009.86
2022-12-04T04:20:59.969Z,1009.83
2022-12-04T04:21:59.948Z,1009.83
2022-12-04T04:22:59.964Z,1009.78
2022-12-04T04:23:59.940Z,1009.82
2022-12-04T04:24:59.947Z,1009.77
2022-12-04T04:25:59.923Z,1009.79
2022-12-04T04:26:59.917Z,1009.77
2022-12-04T04:28:06.422Z,1009.79
2022-12-04T04:28:59.905Z,1009.77
2022-12-04T04:29:59.964Z,1009.83
2022-12-04T04:30:59.918Z,1009.78
2022-12-04T04:31:59.855Z,1009.77
2022-12-04T04:32:59.848Z,1009.74
2022-12-04T04:33:59.808Z,1009.73
2022-12-04T04:34:59.844Z,1009.72
2022-12-04T04:35:59.796Z,1009.71
2022-12-04T04:36:59.797Z,1009.71
2022-12-04T04:37:59.788Z,1009.64
2022-12-04T04:38:59.799Z,1009.66
2022-12-04T04:39:59.821Z,1009.69
2022-12-04T04:40:59.773Z,1009.69
2022-12-04T04:41:59.774Z,1009.67
2022-12-04T04:42:59.738Z,1009.68
2022-12-04T04:43:59.725Z,1009.70
2022-12-04T04:44:59.694Z,1009.71
2022-12-04T04:45:59.772Z,1009.73
2022-12-04T04:46:59.679Z,1009.76
2022-12-04T04:47:59.682Z,1009.69
2022-12-04T04:48:59.672Z,1009.67
2022-12-04T04:49:59.676Z,1009.67
2022-12-04T04:50:59.627Z,1009.70
2022-12-04T04:51:59.621Z,1009.71
2022-12-04T04:52:59.603Z,1009.73
2022-12-04T04:53:59.614Z,1009.72
2022-12-04T04:54:59.591Z,1009.72
2022-12-04T04:55:59.606Z,1009.71
2022-12-04T04:56:59.565Z,1009.72
2022-12-04T04:57:59.559Z,1009.76
2022-12-04T04:58:59.574Z,1009.72
2022-12-04T04:59:59.547Z,1009.70
2022-12-04T05:00:59.553Z,1009.70
2022-12-04T05:01:59.636Z,1009.68
2022-12-04T05:02:59.558Z,1009.74
2022-12-04T05:03:59.484Z,1009.77
2022-12-04T05:04:59.495Z,1009.70
2022-12-04T05:05:59.465Z,1009.75
2022-12-04T05:06:59.446Z,1009.75
2022-12-04T05:07:59.536Z,1009.72
2022-12-04T05:08:59.438Z,1009.75
2022-12-04T05:09:59.704Z,1009.76
2022-12-04T05:10:59.508Z,1009.75
2022-12-04T05:11:59.400Z,1009.77
2022-12-04T05:12:59.378Z,1009.73
2022-12-04T05:13:59.404Z,1009.71
2022-12-04T05:14:59.389Z,1009.76
2022-12-04T05:15:59.461Z,1009.77
2022-12-04T05:17:02.002Z,1009.79
2022-12-04T05:17:59.345Z,1009.80
2022-12-04T05:18:59.334Z,1009.75
2022-12-04T05:19:59.847Z,1009.77
2022-12-04T05:20:59.292Z,1009.73
2022-12-04T05:21:59.324Z,1009.76
2022-12-04T05:22:59.271Z,1009.74
2022-12-04T05:23:59.267Z,1009.75
2022-12-04T05:24:59.251Z,1009.76
2022-12-04T05:25:59.257Z,1009.77
2022-12-04T05:26:59.239Z,1009.75
2022-12-04T05:27:59.255Z,1009.77
2022-12-04T05:28:59.235Z,1009.76
2022-12-04T05:29:59.357Z,1009.73
2022-12-04T05:30:59.279Z,1009.76
2022-12-04T05:31:59.174Z,1009.69
2022-12-04T05:32:59.188Z,1009.74
2022-12-04T05:33:59.141Z,1009.75
2022-12-04T05:34:59.159Z,1009.72
2022-12-04T05:35:59.163Z,1009.67
2022-12-04T05:36:59.161Z,1009.74
2022-12-04T05:37:59.094Z,1009.71
2022-12-04T05:38:59.131Z,1009.74
2022-12-04T05:39:59.390Z,1009.72
2022-12-04T05:40:59.085Z,1009.74
2022-12-04T05:41:59.132Z,1009.70
2022-12-04T05:42:59.049Z,1009.72
2022-12-04T05:43:59.062Z,1009.67
2022-12-04T05:44:59.267Z,1009.71
2022-12-04T05:45:59.048Z,1009.68
2022-12-04T05:46:59.057Z,1009.63
2022-12-04T05:47:59.008Z,1009.67
2022-12-04T05:48:59.023Z,1009.74
2022-12-04T05:49:58.981Z,1009.73
2022-12-04T05:50:59.021Z,1009.73
2022-12-04T05:51:58.956Z,1009.70
2022-12-04T05:52:58.979Z,1009.71
2022-12-04T05:53:58.949Z,1009.71
2022-12-04T05:54:58.915Z,1009.70
2022-12-04T05:55:58.924Z,1009.73
2022-12-04T05:56:58.918Z,1009.73
2022-12-04T05:57:58.913Z,1009.72
2022-12-04T05:58:58.858Z,1009.67
2022-12-04T05:59:58.969Z,1009.70
2022-12-04T06:00:58.887Z,1009.70
2022-12-04T06:01:58.888Z,1009.69
2022-12-04T06:02:58.876Z,1009.69
2022-12-04T06:03:58.812Z,1009.68
2022-12-04T06:04:58.793Z,1009.69
2022-12-04T06:05:58.811Z,1009.68
2022-12-04T06:06:58.798Z,1009.69
2022-12-04T06:07:58.899Z,1009.68
2022-12-04T06:08:58.762Z,1009.74
2022-12-04T06:09:58.966Z,1009.69
2022-12-04T06:10:58.758Z,1009.70
2022-12-04T06:11:58.758Z,1009.69
2022-12-04T06:12:58.786Z,1009.69
2022-12-04T06:13:58.700Z,1009.69
2022-12-04T06:14:58.721Z,1009.71
2022-12-04T06:15:58.725Z,1009.75
2022-12-04T06:16:58.760Z,1009.72
2022-12-04T06:17:58.654Z,1009.77
2022-12-04T06:18:58.679Z,1009.73
2022-12-04T06:19:59.022Z,1009.78
2022-12-04T06:20:58.666Z,1009.78
2022-12-04T06:21:58.668Z,1009.78
2022-12-04T06:22:58.590Z,1009.83
2022-12-04T06:23:58.619Z,1009.80
2022-12-04T06:24:58.570Z,1009.77
2022-12-04T06:26:02.252Z,1009.79
2022-12-04T06:27:28.515Z,1009.81
2022-12-04T06:27:58.593Z,1009.81
2022-12-04T06:28:58.596Z,1009.89
2022-12-04T06:29:58.999Z,1009.84
2022-12-04T06:30:58.558Z,1009.80
2022-12-04T06:31:58.568Z,1009.84
2022-12-04T06:32:58.475Z,1009.86
2022-12-04T06:33:58.512Z,1009.85
2022-12-04T06:34:58.460Z,1009.90
2022-12-04T06:35:58.470Z,1009.92
2022-12-04T06:36:58.450Z,1009.91
2022-12-04T06:37:58.450Z,1009.91
2022-12-04T06:38:58.446Z,1009.97
2022-12-04T06:39:58.692Z,1009.93
2022-12-04T06:40:58.436Z,1009.96
2022-12-04T06:41:58.423Z,1009.99
2022-12-04T06:42:58.407Z,1009.96
2022-12-04T06:43:58.403Z,1009.96
2022-12-04T06:44:58.372Z,1009.90
2022-12-04T06:45:59.150Z,1009.95
2022-12-04T06:47:00.930Z,1009.94
2022-12-04T06:47:58.348Z,1009.93
2022-12-04T06:48:58.315Z,1009.96
2022-12-04T06:49:58.753Z,1010.01
2022-12-04T06:50:58.283Z,1010.00
2022-12-04T06:51:58.518Z,1010.04
2022-12-04T06:53:01.115Z,1010.01
2022-12-04T06:53:58.280Z,1010.04
2022-12-04T06:54:58.267Z,1010.04
2022-12-04T06:55:58.257Z,1010.03
2022-12-04T06:56:58.213Z,1009.99
2022-12-04T06:57:58.225Z,1010.03
2022-12-04T06:58:58.243Z,1010.13
2022-12-04T06:59:58.352Z,1010.17
2022-12-04T07:00:58.236Z,1010.04
2022-12-04T07:01:58.245Z,1010.11
2022-12-04T07:02:58.168Z,1010.15
2022-12-04T07:03:58.149Z,1010.07
2022-12-04T07:04:58.131Z,1010.07
2022-12-04T07:05:58.144Z,1010.06
2022-12-04T07:06:58.147Z,1010.05
2022-12-04T07:07:58.197Z,1010.08
2022-12-04T07:08:58.092Z,1010.08
2022-12-04T07:09:58.386Z,1010.03
2022-12-04T07:10:59.363Z,1010.08
2022-12-04T07:11:58.069Z,1010.12
2022-12-04T07:12:58.034Z,1010.17
2022-12-04T07:13:58.037Z,1010.18
2022-12-04T07:14:58.079Z,1010.15
2022-12-04T07:15:58.056Z,1010.17
2022-12-04T07:16:58.128Z,1010.17
2022-12-04T07:17:57.985Z,1010.19
2022-12-04T07:18:57.964Z,1010.21
2022-12-04T07:19:58.322Z,1010.18
2022-12-04T07:20:57.965Z,1010.20
2022-12-04T07:21:57.972Z,1010.21
2022-12-04T07:23:01.418Z,1010.18
2022-12-04T07:23:57.941Z,1010.15
2022-12-04T07:24:57.913Z,1010.15
2022-12-04T07:25:57.912Z,1010.16
2022-12-04T07:26:57.901Z,1010.14
2022-12-04T07:27:57.881Z,1010.15
2022-12-04T07:28:57.867Z,1010.12
2022-12-04T07:29:58.135Z,1010.15
2022-12-04T07:30:57.852Z,1010.15
2022-12-04T07:31:58.022Z,1010.14
2022-12-04T07:32:57.861Z,1010.16
2022-12-04T07:33:57.797Z,1010.10
2022-12-04T07:34:57.841Z,1010.13
2022-12-04T07:35:57.798Z,1010.11
2022-12-04T07:36:57.792Z,1010.08
2022-12-04T07:38:04.276Z,1010.10
2022-12-04T07:38:57.754Z,1010.08
2022-12-04T07:39:58.057Z,1010.11
2022-12-04T07:40:57.739Z,1010.01
2022-12-04T07:41:57.705Z,1009.98
2022-12-04T07:42:57.753Z,1009.99
2022-12-04T07:43:57.707Z,1009.99
2022-12-04T07:44:57.667Z,1010.00
2022-12-04T07:45:57.821Z,1009.98
2022-12-04T07:46:57.660Z,1010.02
2022-12-04T07:47:57.656Z,1009.95
2022-12-04T07:48:57.636Z,1009.97
2022-12-04T07:49:58.069Z,1010.00
2022-12-04T07:50:57.658Z,1009.98
2022-12-04T07:51:57.590Z,1009.97
2022-12-04T07:52:57.591Z,1010.01
2022-12-04T07:54:02.046Z,1010.10
2022-12-04T07:54:57.572Z,1010.04
2022-12-04T07:55:57.551Z,1010.03
2022-12-04T07:56:57.536Z,1010.09
2022-12-04T07:57:57.550Z,1009.99
2022-12-04T07:58:57.529Z,1010.05
2022-12-04T07:59:57.958Z,1010.06
2022-12-04T08:00:57.529Z,1010.04
2022-12-04T08:01:57.607Z,1010.06
2022-12-04T08:02:57.480Z,1010.05
2022-12-04T08:03:57.578Z,1010.03
2022-12-04T08:04:57.517Z,1010.06
2022-12-04T08:05:57.472Z,1010.05
2022-12-04T08:06:57.459Z,1010.06
2022-12-04T08:08:04.034Z,1010.08
2022-12-04T08:08:57.483Z,1010.06
2022-12-04T08:09:57.639Z,1010.05
2022-12-04T08:10:57.383Z,1010.04
2022-12-04T08:11:57.438Z,1010.06
2022-12-04T08:12:57.354Z,1010.03
2022-12-04T08:13:57.365Z,1010.08
2022-12-04T08:14:57.350Z,1010.04
2022-12-04T08:15:57.337Z,1010.03
2022-12-04T08:16:57.432Z,1010.08
2022-12-04T08:17:57.323Z,1010.13
2022-12-04T08:18:57.279Z,1010.11
2022-12-04T08:19:57.531Z,1010.05
2022-12-04T08:20:57.305Z,1010.10
2022-12-04T08:21:57.271Z,1010.04
2022-12-04T08:22:57.280Z,1010.06
2022-12-04T08:23:57.262Z,1010.09
2022-12-04T08:24:57.222Z,1010.02
2022-12-04T08:25:57.227Z,1010.05
2022-12-04T08:26:57.221Z,1010.08
2022-12-04T08:28:03.744Z,1010.14
2022-12-04T08:28:57.186Z,1010.13
2022-12-04T08:29:57.576Z,1010.03
2022-12-04T08:30:57.242Z,1010.04
2022-12-04T08:31:57.149Z,1010.08
2022-12-04T08:32:57.136Z,1010.06
2022-12-04T08:33:57.118Z,1010.07
2022-12-04T08:34:57.111Z,1010.05
2022-12-04T08:35:57.088Z,1010.02
2022-12-04T08:36:57.072Z,1010.08
2022-12-04T08:37:57.066Z,1010.05
2022-12-04T08:38:57.109Z,1010.06
2022-12-04T08:39:57.665Z,1010.00
2022-12-04T08:40:57.090Z,1010.05
2022-12-04T08:41:57.461Z,1010.01
2022-12-04T08:42:57.025Z,1010.05
2022-12-04T08:43:57.023Z,1010.05
2022-12-04T08:44:56.998Z,1010.02
2022-12-04T08:45:57.032Z,1010.05
2022-12-04T08:46:57.018Z,1010.03
2022-12-04T08:47:57.082Z,1009.99
2022-12-04T08:48:56.944Z,1010.05
2022-12-04T08:49:57.292Z,1010.00
2022-12-04T08:50:56.909Z,1010.03
2022-12-04T08:51:56.935Z,1010.05
2022-12-04T08:52:56.892Z,1010.09
2022-12-04T08:53:56.928Z,1010.09
2022-12-04T08:54:56.897Z,1010.07
2022-12-04T08:55:56.897Z,1010.08
2022-12-04T08:56:56.887Z,1010.03
2022-12-04T08:57:56.916Z,1010.16
2022-12-04T08:58:56.853Z,1010.13
2022-12-04T08:59:57.366Z,1010.19
2022-12-04T09:00:57.077Z,1010.17
2022-12-04T09:01:56.908Z,1010.26
2022-12-04T09:02:56.815Z,1010.23
2022-12-04T09:03:56.862Z,1010.27
2022-12-04T09:04:56.816Z,1010.26
2022-12-04T09:05:56.777Z,1010.22
2022-12-04T09:06:56.759Z,1010.27
2022-12-04T09:07:56.819Z,1010.22
2022-12-04T09:08:56.742Z,1010.20
2022-12-04T09:09:57.196Z,1010.20
2022-12-04T09:10:56.717Z,1010.23
2022-12-04T09:11:56.712Z,1010.21
2022-12-04T09:12:56.709Z,1010.21
2022-12-04T09:13:56.695Z,1010.29
2022-12-04T09:14:56.698Z,1010.21
2022-12-04T09:15:56.724Z,1010.21
2022-12-04T09:16:56.651Z,1010.19
2022-12-04T09:17:56.612Z,1010.18
2022-12-04T09:18:57.211Z,1010.20
2022-12-04T09:20:00.715Z,1010.23
2022-12-04T09:20:56.631Z,1010.22
2022-12-04T09:21:56.591Z,1010.23
2022-12-04T09:23:04.965Z,1010.25
2022-12-04T09:23:56.557Z,1010.29
2022-12-04T09:24:56.544Z,1010.27
2022-12-04T09:25:56.556Z,1010.28
2022-12-04T09:26:56.554Z,1010.30
2022-12-04T09:27:56.522Z,1010.26
2022-12-04T09:28:56.528Z,1010.30
2022-12-04T09:29:56.875Z,1010.26
2022-12-04T09:30:56.491Z,1010.30
2022-12-04T09:31:56.468Z,1010.27
2022-12-04T09:32:56.514Z,1010.33
2022-12-04T09:33:56.467Z,1010.30
2022-12-04T09:34:56.449Z,1010.30
2022-12-04T09:35:56.443Z,1010.27
2022-12-04T09:36:56.418Z,1010.24
2022-12-04T09:37:56.409Z,1010.24
2022-12-04T09:38:56.413Z,1010.20
2022-12-04T09:39:56.665Z,1010.21
2022-12-04T09:40:56.388Z,1010.20
2022-12-04T09:41:56.354Z,1010.18
2022-12-04T09:42:56.351Z,1010.20
2022-12-04T09:43:56.353Z,1010.20
2022-12-04T09:44:56.320Z,1010.18
2022-12-04T09:45:56.371Z,1010.23
2022-12-04T09:46:56.359Z,1010.19
2022-12-04T09:47:56.308Z,1010.19
2022-12-04T09:48:56.289Z,1010.16
2022-12-04T09:49:56.591Z,1010.16
2022-12-04T09:50:56.331Z,1010.19
2022-12-04T09:51:56.263Z,1010.15
2022-12-04T09:52:56.257Z,1010.08
2022-12-04T09:53:56.244Z,1010.09
2022-12-04T09:54:56.207Z,1010.13
2022-12-04T09:55:56.205Z,1010.12
2022-12-04T09:56:56.207Z,1010.13
2022-12-04T09:58:01.536Z,1010.17
2022-12-04T09:58:56.193Z,1010.17
2022-12-04T09:59:56.497Z,1010.14
2022-12-04T10:00:56.185Z,1010.15
2022-12-04T10:01:56.155Z,1010.13
2022-12-04T10:02:56.381Z,1010.12
2022-12-04T10:03:58.801Z,1010.10
2022-12-04T10:04:56.153Z,1010.09
2022-12-04T10:05:56.124Z,1010.11
2022-12-04T10:06:56.096Z,1010.08
2022-12-04T10:07:56.118Z,1010.06
2022-12-04T10:08:56.138Z,1009.99
2022-12-04T10:09:56.512Z,1009.98
2022-12-04T10:10:56.060Z,1010.04
2022-12-04T10:11:56.017Z,1009.96
2022-12-04T10:12:56.030Z,1009.94
2022-12-04T10:13:55.991Z,1009.96
2022-12-04T10:14:56.023Z,1009.92
2022-12-04T10:15:56.020Z,1009.90
2022-12-04T10:16:56.004Z,1009.86
2022-12-04T10:19:06.961Z,1009.87
2022-12-04T10:20:08.023Z,1009.87
2022-12-04T10:21:07.956Z,1009.84
2022-12-04T10:22:07.930Z,1009.82
2022-12-04T10:23:12.299Z,1009.80
2022-12-04T10:24:07.923Z,1009.79
2022-12-04T10:25:07.882Z,1009.74
2022-12-04T10:26:07.875Z,1009.74
2022-12-04T10:27:07.860Z,1009.76
2022-12-04T10:28:07.862Z,1009.80
2022-12-04T10:29:07.863Z,1009.77
2022-12-04T10:30:07.838Z,1009.82
2022-12-04T10:31:07.851Z,1009.77
2022-12-04T10:32:07.796Z,1009.81
2022-12-04T10:33:07.782Z,1009.78
2022-12-04T10:34:07.809Z,1009.74
2022-12-04T10:35:07.771Z,1009.75
2022-12-04T10:36:07.777Z,1009.73
2022-12-04T10:37:07.737Z,1009.63
2022-12-04T10:38:07.766Z,1009.65
2022-12-04T10:39:07.759Z,1009.72
2022-12-04T10:40:07.732Z,1009.66
2022-12-04T10:41:13.156Z,1009.70
2022-12-04T10:42:07.691Z,1009.67
2022-12-04T10:43:07.685Z,1009.69
2022-12-04T10:44:07.681Z,1009.69
2022-12-04T10:45:07.702Z,1009.63
2022-12-04T10:46:07.683Z,1009.60
2022-12-04T10:47:07.711Z,1009.51
2022-12-04T10:48:07.666Z,1009.51
2022-12-04T10:49:07.640Z,1009.48
2022-12-04T10:50:07.646Z,1009.53
2022-12-04T10:51:07.633Z,1009.47
2022-12-04T10:52:07.596Z,1009.47
2022-12-04T10:53:13.484Z,1009.45
2022-12-04T10:54:07.567Z,1009.44
2022-12-04T10:55:07.555Z,1009.44
2022-12-04T10:56:07.545Z,1009.41
2022-12-04T10:57:07.565Z,1009.44
2022-12-04T10:58:07.522Z,1009.43
2022-12-04T10:59:07.509Z,1009.47
2022-12-04T11:00:07.542Z,1009.43
2022-12-04T11:01:07.487Z,1009.46
2022-12-04T11:02:07.579Z,1009.43
2022-12-04T11:03:07.558Z,1009.42
2022-12-04T11:04:07.478Z,1009.39
2022-12-04T11:05:07.455Z,1009.40
2022-12-04T11:06:07.418Z,1009.37
2022-12-04T11:07:07.442Z,1009.36
2022-12-04T11:08:07.484Z,1009.32
2022-12-04T11:09:07.414Z,1009.32
2022-12-04T11:10:07.387Z,1009.29
2022-12-04T11:11:07.392Z,1009.29
2022-12-04T11:12:07.387Z,1009.28
2022-12-04T11:13:07.335Z,1009.23
2022-12-04T11:14:07.332Z,1009.22
2022-12-04T11:15:07.330Z,1009.22
2022-12-04T11:16:07.366Z,1009.18
2022-12-04T11:17:07.300Z,1009.17
2022-12-04T11:18:07.282Z,1009.17
2022-12-04T11:19:07.311Z,1009.21
2022-12-04T11:20:07.264Z,1009.21
2022-12-04T11:21:07.273Z,1009.23
2022-12-04T11:22:07.326Z,1009.24
2022-12-04T11:23:07.229Z,1009.24
2022-12-04T11:24:07.298Z,1009.28
2022-12-04T11:25:07.311Z,1009.28
2022-12-04T11:26:07.294Z,1009.25
2022-12-04T11:27:07.175Z,1009.24
2022-12-04T11:28:07.199Z,1009.20
2022-12-04T11:29:07.191Z,1009.18
2022-12-04T11:30:07.155Z,1009.21
2022-12-04T11:31:07.239Z,1009.16
2022-12-04T11:32:08.169Z,1009.13
2022-12-04T11:33:07.120Z,1009.16
2022-12-04T11:34:07.119Z,1009.14
2022-12-04T11:35:07.095Z,1009.11
2022-12-04T11:36:07.084Z,1009.09
2022-12-04T11:37:07.067Z,1009.12
2022-12-04T11:38:07.062Z,1009.14
2022-12-04T11:39:07.068Z,1009.15
2022-12-04T11:40:07.051Z,1009.11
2022-12-04T11:41:07.040Z,1009.13
2022-12-04T11:42:07.082Z,1009.12
2022-12-04T11:43:07.022Z,1009.11
2022-12-04T11:44:07.029Z,1009.10
2022-12-04T11:45:07.047Z,1009.13
2022-12-04T11:46:07.006Z,1009.14
2022-12-04T11:47:07.083Z,1009.19
2022-12-04T11:48:06.972Z,1009.15
2022-12-04T11:49:06.964Z,1009.19
2022-12-04T11:50:06.992Z,1009.16
2022-12-04T11:51:06.951Z,1009.17
2022-12-04T11:52:06.921Z,1009.19
2022-12-04T11:53:06.970Z,1009.19
2022-12-04T11:54:06.883Z,1009.20
2022-12-04T11:55:06.906Z,1009.15
2022-12-04T11:56:06.859Z,1009.13
2022-12-04T11:57:06.856Z,1009.14
2022-12-04T11:58:06.851Z,1009.08
2022-12-04T11:59:06.879Z,1009.12
2022-12-04T12:00:06.875Z,1009.10
2022-12-04T12:01:06.831Z,1009.05
2022-12-04T12:02:06.936Z,1009.01
2022-12-04T12:03:06.920Z,1009.02
2022-12-04T12:04:06.767Z,1009.02
2022-12-04T12:05:06.793Z,1009.01
2022-12-04T12:06:06.769Z,1008.96
2022-12-04T12:07:06.739Z,1008.94
2022-12-04T12:08:13.240Z,1008.90